Time;durP1;ratioP1;P1;durP2;ratioP2;P2;SDS_P1;SDS_P2;PMS_P1;PMS_P2;Temp;Humidity;BMP_temperature;BMP_pressure;BME280_temperature;BME280_humidity;BME280_pressure;Samples;Min_cycle;Max_cycle;Signal;HPM_P1;HPM_P2
2021/01/20 00:01:52;;;;;;;;;17.50;14.00;;;;;;;;5010257;28;11696;-82
2021/01/20 00:04:19;;;;;;;;;16.25;13.25;;;;;;;;5006375;28;11615;-81
2021/01/20 00:06:48;;;;;;;;;10.75;9.75;;;;;;;;5003548;28;11613;-82
2021/01/20 00:09:14;;;;;;;;;10.75;10.75;;;;;;;;5014096;28;11630;-80
2021/01/20 00:11:41;;;;;;;;;11.75;10.00;;;;;;;;5002368;28;11626;-82
2021/01/20 00:14:09;;;;;;;;;9.50;9.50;;;;;;;;4986136;28;11583;-82
2021/01/20 00:16:36;;;;;;;;;13.75;10.25;;;;;;;;5002734;28;11610;-80
2021/01/20 00:19:03;;;;;;;;;13.75;12.50;;;;;;;;5003560;28;11566;-80
2021/01/20 00:21:30;;;;;;;;;16.00;12.75;;;;;;;;4994744;28;11600;-81
2021/01/20 00:23:57;;;;;;;;;13.25;11.75;;;;;;;;5002073;28;11689;-82
2021/01/20 00:26:24;;;;;;;;;11.50;11.25;;;;;;;;5003414;28;11628;-81
2021/01/20 00:28:51;;;;;;;;;8.50;8.00;;;;;;;;5002360;28;11708;-79
2021/01/20 00:31:18;;;;;;;;;13.25;10.00;;;;;;;;4988750;28;11557;-81
2021/01/20 00:33:45;;;;;;;;;10.75;10.75;;;;;;;;5004437;28;12228;-81
2021/01/20 00:36:12;;;;;;;;;13.00;10.00;;;;;;;;5004912;28;11646;-81
2021/01/20 00:38:39;;;;;;;;;10.50;10.50;;;;;;;;5003049;28;11622;-80
2021/01/20 00:41:06;;;;;;;;;13.00;11.25;;;;;;;;5004133;28;11621;-81
2021/01/20 00:43:33;;;;;;;;;9.50;9.50;;;;;;;;4983436;28;11585;-80
2021/01/20 00:46:00;;;;;;;;;10.75;10.75;;;;;;;;4983881;28;12378;-82
2021/01/20 00:48:27;;;;;;;;;9.00;9.00;;;;;;;;5003843;28;11547;-78
2021/01/20 00:50:55;;;;;;;;;13.00;11.00;;;;;;;;5002383;28;11533;-79
2021/01/20 00:53:22;;;;;;;;;9.25;9.25;;;;;;;;5002335;28;11553;-81
2021/01/20 00:55:49;;;;;;;;;10.50;10.50;;;;;;;;5001102;28;11670;-78
2021/01/20 00:58:17;;;;;;;;;6.00;6.00;;;;;;;;5006277;28;11549;-81
2021/01/20 01:00:44;;;;;;;;;7.00;6.00;;;;;;;;5001979;28;11561;-81
2021/01/20 01:03:11;;;;;;;;;9.25;9.25;;;;;;;;5002262;28;11547;-81
2021/01/20 01:05:38;;;;;;;;;11.75;9.75;;;;;;;;5004046;28;11613;-81
2021/01/20 01:08:05;;;;;;;;;6.50;6.50;;;;;;;;5006708;28;11644;-79
2021/01/20 01:10:32;;;;;;;;;9.25;9.25;;;;;;;;4999193;28;11544;-80
2021/01/20 01:12:59;;;;;;;;;10.25;9.25;;;;;;;;5000994;28;11588;-81
2021/01/20 01:15:28;;;;;;;;;9.50;8.50;;;;;;;;5002496;28;11540;-81
2021/01/20 01:17:54;;;;;;;;;12.25;6.00;;;;;;;;5006154;28;11636;-78
2021/01/20 01:20:21;;;;;;;;;9.25;8.75;;;;;;;;5006401;28;11588;-81
2021/01/20 01:22:48;;;;;;;;;7.25;7.25;;;;;;;;5006013;28;11532;-79
2021/01/20 01:25:15;;;;;;;;;9.00;6.00;;;;;;;;5005094;28;11507;-82
2021/01/20 01:27:42;;;;;;;;;12.00;9.50;;;;;;;;5005863;28;11557;-82
2021/01/20 01:30:10;;;;;;;;;6.00;6.00;;;;;;;;5004938;28;11523;-80
2021/01/20 01:32:38;;;;;;;;;10.00;9.00;;;;;;;;5005151;28;11613;-81
2021/01/20 01:35:06;;;;;;;;;10.00;9.00;;;;;;;;4988930;28;12346;-81
2021/01/20 01:37:32;;;;;;;;;7.75;7.75;;;;;;;;5005991;28;11541;-81
2021/01/20 01:39:59;;;;;;;;;8.00;8.00;;;;;;;;5006859;28;11538;-80
2021/01/20 01:42:27;;;;;;;;;6.25;5.75;;;;;;;;5002274;28;11543;-81
2021/01/20 01:44:54;;;;;;;;;6.75;6.75;;;;;;;;5004036;28;11520;-81
2021/01/20 01:47:21;;;;;;;;;7.00;7.00;;;;;;;;5003943;28;11530;-81
2021/01/20 01:49:49;;;;;;;;;6.50;6.50;;;;;;;;5005776;28;11523;-80
2021/01/20 01:52:16;;;;;;;;;5.00;3.00;;;;;;;;4987154;28;11522;-81
2021/01/20 01:54:45;;;;;;;;;6.25;6.00;;;;;;;;4973088;28;11549;-83
2021/01/20 01:57:12;;;;;;;;;9.25;9.25;;;;;;;;5003005;28;12403;-81
2021/01/20 01:59:39;;;;;;;;;9.50;7.00;;;;;;;;4989431;28;12461;-83
2021/01/20 02:02:06;;;;;;;;;7.00;7.00;;;;;;;;5004986;28;11449;-83
2021/01/20 02:04:33;;;;;;;;;7.00;7.00;;;;;;;;5005405;28;11636;-81
2021/01/20 02:07:01;;;;;;;;;6.50;6.50;;;;;;;;4999863;28;11550;-82
2021/01/20 02:09:29;;;;;;;;;5.00;5.00;;;;;;;;5013928;28;11583;-81
2021/01/20 02:12:16;;;;;;;;;6.75;6.75;;;;;;;;4988595;28;11528;-83
2021/01/20 02:14:50;;;;;;;;;9.00;7.00;;;;;;;;4994241;28;11568;-82
2021/01/20 02:17:23;;;;;;;;;5.00;5.00;;;;;;;;5005463;28;11580;-81
2021/01/20 02:20:15;;;;;;;;;7.50;7.50;;;;;;;;5006629;28;11588;-83
2021/01/20 02:22:45;;;;;;;;;10.00;8.00;;;;;;;;4998360;28;11535;-83
2021/01/20 02:25:18;;;;;;;;;9.25;6.25;;;;;;;;4999893;28;11545;-81
2021/01/20 02:27:55;;;;;;;;;7.00;7.00;;;;;;;;5006091;28;11539;-82
2021/01/20 02:30:24;;;;;;;;;7.00;7.00;;;;;;;;5004379;28;11554;-80
2021/01/20 02:32:54;;;;;;;;;6.25;6.00;;;;;;;;5005803;28;11575;-81
2021/01/20 02:35:22;;;;;;;;;6.50;6.50;;;;;;;;5005036;28;11610;-82
2021/01/20 02:37:50;;;;;;;;;7.75;5.75;;;;;;;;5005359;28;11570;-81
2021/01/20 02:40:17;;;;;;;;;8.00;8.00;;;;;;;;5002438;28;11541;-79
2021/01/20 02:42:46;;;;;;;;;5.50;5.00;;;;;;;;5004611;28;11528;-82
2021/01/20 02:45:14;;;;;;;;;5.75;5.75;;;;;;;;5006534;28;11533;-82
2021/01/20 02:47:43;;;;;;;;;8.50;6.00;;;;;;;;5007598;28;11505;-82
2021/01/20 02:50:11;;;;;;;;;5.00;5.00;;;;;;;;5005575;28;11578;-82
2021/01/20 02:52:44;;;;;;;;;8.00;6.00;;;;;;;;4987503;28;11560;-82
2021/01/20 02:55:12;;;;;;;;;9.00;6.00;;;;;;;;5004373;28;11542;-81
2021/01/20 02:57:39;;;;;;;;;5.50;4.50;;;;;;;;5004307;28;11525;-83
2021/01/20 03:00:07;;;;;;;;;5.00;5.00;;;;;;;;4986436;28;11638;-82
2021/01/20 03:02:35;;;;;;;;;6.00;6.00;;;;;;;;4987673;28;11618;-81
2021/01/20 03:05:04;;;;;;;;;2.75;2.75;;;;;;;;5001541;28;11548;-82
2021/01/20 03:07:32;;;;;;;;;7.75;6.25;;;;;;;;4999629;28;11520;-79
2021/01/20 03:09:59;;;;;;;;;3.00;3.00;;;;;;;;5004749;28;12333;-83
2021/01/20 03:12:29;;;;;;;;;7.25;5.50;;;;;;;;5004434;28;11533;-77
2021/01/20 03:14:58;;;;;;;;;1.50;1.50;;;;;;;;5004224;28;11582;-80
2021/01/20 03:17:26;;;;;;;;;5.00;5.00;;;;;;;;5004663;28;11524;-82
2021/01/20 03:19:52;;;;;;;;;6.25;5.00;;;;;;;;4986617;28;11521;-80
2021/01/20 03:22:20;;;;;;;;;5.00;5.00;;;;;;;;5003062;28;11585;-82
2021/01/20 03:24:47;;;;;;;;;6.25;6.25;;;;;;;;5004409;28;11546;-81
2021/01/20 03:27:14;;;;;;;;;3.50;3.50;;;;;;;;5003103;28;11596;-80
2021/01/20 03:29:42;;;;;;;;;6.75;6.75;;;;;;;;5003956;28;11649;-81
2021/01/20 03:32:09;;;;;;;;;5.75;5.50;;;;;;;;4984844;28;11483;-82
2021/01/20 03:34:36;;;;;;;;;5.25;5.25;;;;;;;;5004496;28;11553;-81
2021/01/20 03:37:04;;;;;;;;;6.50;6.50;;;;;;;;5004162;28;11527;-81
2021/01/20 03:39:32;;;;;;;;;6.00;6.00;;;;;;;;5004226;28;11549;-80
2021/01/20 03:41:59;;;;;;;;;6.25;6.25;;;;;;;;5003098;28;11518;-81
2021/01/20 03:44:26;;;;;;;;;5.25;5.25;;;;;;;;5005587;28;11652;-81
2021/01/20 03:46:53;;;;;;;;;6.75;5.00;;;;;;;;5003817;28;11533;-81
2021/01/20 03:49:20;;;;;;;;;10.00;6.00;;;;;;;;5002470;28;11509;-81
2021/01/20 03:51:49;;;;;;;;;5.50;5.50;;;;;;;;5004112;28;11556;-80
2021/01/20 03:54:16;;;;;;;;;5.75;5.75;;;;;;;;5002108;28;11589;-81
2021/01/20 03:56:44;;;;;;;;;8.00;8.00;;;;;;;;4996776;28;11649;-80
2021/01/20 03:59:11;;;;;;;;;5.75;5.50;;;;;;;;5003765;28;11500;-81
2021/01/20 04:01:38;;;;;;;;;6.75;6.75;;;;;;;;4984198;28;11478;-81
2021/01/20 04:04:05;;;;;;;;;7.00;5.00;;;;;;;;4985090;28;11514;-80
2021/01/20 04:06:32;;;;;;;;;9.25;5.00;;;;;;;;5002222;28;12474;-81
2021/01/20 04:08:59;;;;;;;;;6.25;6.25;;;;;;;;5008161;28;12415;-79
2021/01/20 04:11:26;;;;;;;;;7.00;5.75;;;;;;;;5002988;28;11659;-81
2021/01/20 04:13:54;;;;;;;;;5.50;5.00;;;;;;;;5003144;28;11557;-81
2021/01/20 04:16:21;;;;;;;;;6.00;6.00;;;;;;;;5002557;28;11545;-81
2021/01/20 04:18:47;;;;;;;;;5.75;3.00;;;;;;;;5002472;28;11535;-79
2021/01/20 04:21:15;;;;;;;;;4.50;4.50;;;;;;;;4985024;28;11504;-80
2021/01/20 04:23:41;;;;;;;;;6.00;6.00;;;;;;;;4984996;28;11505;-80
2021/01/20 04:26:09;;;;;;;;;5.00;5.00;;;;;;;;5002771;28;11535;-81
2021/01/20 04:28:37;;;;;;;;;9.00;4.50;;;;;;;;5002288;28;11551;-82
2021/01/20 04:31:05;;;;;;;;;3.00;3.00;;;;;;;;4988349;28;11473;-81
2021/01/20 04:33:32;;;;;;;;;3.00;3.00;;;;;;;;4995553;28;11522;-79
2021/01/20 04:35:59;;;;;;;;;5.25;5.25;;;;;;;;5003296;28;11499;-81
2021/01/20 04:38:26;;;;;;;;;5.00;5.00;;;;;;;;5003237;28;11556;-80
2021/01/20 04:40:53;;;;;;;;;5.25;3.25;;;;;;;;5002299;28;12297;-80
2021/01/20 04:43:20;;;;;;;;;4.50;4.50;;;;;;;;5003545;28;11537;-80
2021/01/20 04:45:49;;;;;;;;;8.00;4.00;;;;;;;;5000817;28;11540;-86
2021/01/20 04:48:19;;;;;;;;;4.50;4.50;;;;;;;;5001948;28;12389;-81
2021/01/20 04:50:47;;;;;;;;;5.50;5.50;;;;;;;;4998162;28;11520;-81
2021/01/20 04:53:15;;;;;;;;;3.00;3.00;;;;;;;;4984395;28;11520;-81
2021/01/20 04:55:43;;;;;;;;;2.50;2.25;;;;;;;;5006467;28;11535;-81
2021/01/20 04:58:11;;;;;;;;;5.00;5.00;;;;;;;;4997475;28;11652;-78
2021/01/20 05:00:38;;;;;;;;;7.50;7.50;;;;;;;;5003398;28;11510;-80
2021/01/20 05:03:06;;;;;;;;;4.50;4.00;;;;;;;;5002387;28;11611;-79
2021/01/20 05:05:34;;;;;;;;;3.00;3.00;;;;;;;;5003940;28;11564;-79
2021/01/20 05:08:01;;;;;;;;;3.00;3.00;;;;;;;;5006797;28;11553;-79
2021/01/20 05:10:28;;;;;;;;;4.25;3.00;;;;;;;;5006297;28;11553;-79
2021/01/20 05:12:55;;;;;;;;;5.00;2.75;;;;;;;;4985420;28;11519;-79
2021/01/20 05:15:31;;;;;;;;;3.00;3.00;;;;;;;;4984279;28;12367;-80
2021/01/20 05:17:59;;;;;;;;;5.00;2.00;;;;;;;;5001859;28;11534;-81
2021/01/20 05:20:30;;;;;;;;;4.00;4.00;;;;;;;;5010975;28;11550;-81
2021/01/20 05:22:59;;;;;;;;;3.00;3.00;;;;;;;;4995790;28;11540;-85
2021/01/20 05:25:31;;;;;;;;;5.00;5.00;;;;;;;;5001656;28;11194;-81
2021/01/20 05:27:58;;;;;;;;;2.00;2.00;;;;;;;;5000205;28;11597;-80
2021/01/20 05:30:26;;;;;;;;;1.00;1.00;;;;;;;;5003202;28;11442;-80
2021/01/20 05:32:57;;;;;;;;;5.25;5.25;;;;;;;;5000730;28;11437;-81
2021/01/20 05:35:23;;;;;;;;;4.50;4.50;;;;;;;;5003661;28;12415;-81
2021/01/20 05:37:50;;;;;;;;;5.00;2.00;;;;;;;;5003932;28;11523;-81
2021/01/20 05:40:20;;;;;;;;;2.00;2.00;;;;;;;;5004168;28;12281;-83
2021/01/20 05:42:50;;;;;;;;;2.75;2.25;;;;;;;;5002133;28;11227;-82
2021/01/20 05:45:18;;;;;;;;;4.00;4.00;;;;;;;;4986085;28;11328;-79
2021/01/20 05:48:07;;;;;;;;;2.00;2.00;;;;;;;;5002107;28;11512;-84
2021/01/20 05:50:35;;;;;;;;;3.75;2.75;;;;;;;;5002561;28;11368;-84
2021/01/20 05:53:06;;;;;;;;;6.25;5.00;;;;;;;;5002851;28;11581;-82
2021/01/20 05:55:34;;;;;;;;;0.00;0.00;;;;;;;;5002460;28;11594;-80
2021/01/20 05:58:02;;;;;;;;;5.00;5.00;;;;;;;;5003721;28;11286;-80
2021/01/20 06:00:29;;;;;;;;;2.00;2.00;;;;;;;;4986838;28;11463;-82
2021/01/20 06:02:57;;;;;;;;;1.75;1.75;;;;;;;;5005805;28;11176;-83
2021/01/20 06:05:24;;;;;;;;;2.00;2.00;;;;;;;;5006778;28;11170;-83
2021/01/20 06:07:53;;;;;;;;;5.00;5.00;;;;;;;;5008809;28;11211;-82
2021/01/20 06:10:22;;;;;;;;;2.00;2.00;;;;;;;;4999444;28;11539;-82
2021/01/20 06:12:50;;;;;;;;;2.00;2.00;;;;;;;;4998347;28;11305;-81
2021/01/20 06:15:17;;;;;;;;;4.25;2.00;;;;;;;;4994607;28;11186;-84
2021/01/20 06:17:46;;;;;;;;;2.25;2.25;;;;;;;;4990025;28;11196;-81
2021/01/20 06:20:14;;;;;;;;;5.00;2.50;;;;;;;;5000291;28;11281;-81
2021/01/20 06:22:46;;;;;;;;;3.00;1.25;;;;;;;;5002821;28;11358;-83
2021/01/20 06:25:17;;;;;;;;;2.25;2.25;;;;;;;;4992482;28;11188;-79
2021/01/20 06:27:50;;;;;;;;;3.00;3.00;;;;;;;;4997986;28;12348;-82
2021/01/20 06:30:20;;;;;;;;;5.25;5.25;;;;;;;;4993387;28;11629;-81
2021/01/20 06:32:48;;;;;;;;;3.00;3.00;;;;;;;;4993799;28;11602;-84
2021/01/20 06:35:16;;;;;;;;;0.50;0.50;;;;;;;;4991719;28;11542;-86
2021/01/20 06:37:44;;;;;;;;;7.50;3.00;;;;;;;;4976579;28;11184;-85
2021/01/20 06:40:37;;;;;;;;;4.00;2.00;;;;;;;;5005943;28;11523;-87
2021/01/20 06:43:40;;;;;;;;;3.00;2.50;;;;;;;;4996725;28;11348;-83
2021/01/20 06:46:22;;;;;;;;;5.00;3.00;;;;;;;;5001962;28;11037;-84
2021/01/20 06:49:16;;;;;;;;;2.00;2.00;;;;;;;;5001458;28;11108;-83
2021/01/20 06:52:10;;;;;;;;;2.25;2.25;;;;;;;;4947070;28;11142;-81
2021/01/20 06:54:39;;;;;;;;;2.50;2.50;;;;;;;;4989130;28;11219;-81
2021/01/20 06:57:27;;;;;;;;;2.00;2.00;;;;;;;;4998954;28;11103;-82
2021/01/20 07:00:23;;;;;;;;;3.00;3.00;;;;;;;;4984989;28;11185;-83
2021/01/20 07:03:01;;;;;;;;;1.75;1.75;;;;;;;;4953337;28;11065;-83
2021/01/20 07:05:38;;;;;;;;;2.00;2.00;;;;;;;;5006960;28;11119;-83
2021/01/20 07:08:10;;;;;;;;;2.00;2.00;;;;;;;;5012573;28;11066;-84
2021/01/20 07:11:07;;;;;;;;;1.75;1.75;;;;;;;;5006389;28;11193;-82
2021/01/20 07:13:35;;;;;;;;;2.75;2.00;;;;;;;;4938056;28;10994;-81
2021/01/20 07:16:06;;;;;;;;;1.00;1.00;;;;;;;;4987816;28;11010;-88
2021/01/20 07:18:33;;;;;;;;;2.75;2.75;;;;;;;;4998795;28;11046;-82
2021/01/20 07:21:00;;;;;;;;;1.50;1.50;;;;;;;;5004866;28;11187;-88
2021/01/20 07:23:28;;;;;;;;;5.00;2.75;;;;;;;;4984578;28;10977;-79
2021/01/20 07:25:56;;;;;;;;;5.00;2.75;;;;;;;;5002904;28;11064;-79
2021/01/20 07:28:24;;;;;;;;;2.00;2.00;;;;;;;;5003216;28;11018;-80
2021/01/20 07:31:03;;;;;;;;;2.50;1.25;;;;;;;;4985833;28;10862;-79
2021/01/20 07:33:31;;;;;;;;;2.75;2.00;;;;;;;;5002382;28;10942;-79
2021/01/20 07:36:08;;;;;;;;;7.00;5.50;;;;;;;;5001946;28;11037;-82
2021/01/20 07:38:35;;;;;;;;;4.50;4.50;;;;;;;;4994588;28;11031;-81
2021/01/20 07:41:14;;;;;;;;;5.50;5.50;;;;;;;;5006506;28;11019;-80
2021/01/20 07:43:41;;;;;;;;;6.50;3.25;;;;;;;;5005667;28;10952;-81
2021/01/20 07:46:19;;;;;;;;;2.00;2.00;;;;;;;;5003908;28;11057;-82
2021/01/20 07:48:47;;;;;;;;;4.00;4.00;;;;;;;;4999340;28;10972;-82
2021/01/20 07:51:18;;;;;;;;;2.75;2.75;;;;;;;;5001891;28;11024;-78
2021/01/20 07:53:59;;;;;;;;;2.00;2.00;;;;;;;;4999098;28;11041;-79
2021/01/20 07:56:26;;;;;;;;;4.00;3.00;;;;;;;;5002768;28;11190;-80
2021/01/20 07:58:53;;;;;;;;;2.50;2.00;;;;;;;;4996329;28;11665;-81
2021/01/20 08:01:30;;;;;;;;;2.00;2.00;;;;;;;;5000798;28;10848;-83
2021/01/20 08:03:58;;;;;;;;;3.00;3.00;;;;;;;;5006607;28;10981;-79
2021/01/20 08:06:26;;;;;;;;;3.00;3.00;;;;;;;;5005482;28;10986;-78
2021/01/20 08:08:54;;;;;;;;;6.00;3.00;;;;;;;;5002649;28;11857;-79
2021/01/20 08:11:22;;;;;;;;;6.00;2.50;;;;;;;;5001361;28;10956;-80
2021/01/20 08:13:50;;;;;;;;;2.25;2.25;;;;;;;;5001026;28;10906;-83
2021/01/20 08:16:17;;;;;;;;;2.25;2.25;;;;;;;;5012010;28;11106;-82
2021/01/20 08:18:46;;;;;;;;;5.00;5.00;;;;;;;;5006169;28;11788;-83
2021/01/20 08:21:14;;;;;;;;;4.50;2.25;;;;;;;;5004378;28;11197;-83
2021/01/20 08:23:49;;;;;;;;;2.00;2.00;;;;;;;;5009754;28;11115;-86
2021/01/20 08:26:16;;;;;;;;;4.50;3.00;;;;;;;;5003521;28;10970;-81
2021/01/20 08:29:01;;;;;;;;;3.00;3.00;;;;;;;;4990847;28;11790;-84
2021/01/20 08:31:28;;;;;;;;;5.50;5.50;;;;;;;;4995439;28;10899;-84
2021/01/20 08:34:18;;;;;;;;;5.00;5.00;;;;;;;;4986786;28;11219;-83
2021/01/20 08:37:01;;;;;;;;;2.00;2.00;;;;;;;;5002380;28;11062;-83
2021/01/20 08:39:29;;;;;;;;;2.00;2.00;;;;;;;;4986915;28;11069;-79
2021/01/20 08:42:21;;;;;;;;;4.00;2.75;;;;;;;;5003523;28;10935;-85
2021/01/20 08:45:06;;;;;;;;;2.00;2.00;;;;;;;;4999652;28;11011;-78
2021/01/20 08:47:34;;;;;;;;;1.25;1.25;;;;;;;;5003038;28;11119;-81
2021/01/20 08:50:01;;;;;;;;;2.00;2.00;;;;;;;;4982993;28;11025;-80
2021/01/20 08:52:42;;;;;;;;;2.25;2.25;;;;;;;;5003205;28;10971;-84
2021/01/20 08:55:10;;;;;;;;;2.00;2.00;;;;;;;;4998580;28;10969;-82
2021/01/20 08:57:37;;;;;;;;;2.75;1.00;;;;;;;;5005211;28;11054;-71
2021/01/20 09:00:06;;;;;;;;;2.00;2.00;;;;;;;;5015242;28;10968;-70
2021/01/20 09:02:32;;;;;;;;;4.00;2.00;;;;;;;;5004592;28;10956;-71
2021/01/20 09:04:59;;;;;;;;;2.00;2.00;;;;;;;;4997966;28;10797;-70
2021/01/20 09:07:26;;;;;;;;;1.75;1.75;;;;;;;;5009467;28;10962;-70
2021/01/20 09:09:53;;;;;;;;;2.00;2.00;;;;;;;;5005927;28;10895;-71
2021/01/20 09:12:20;;;;;;;;;2.00;2.00;;;;;;;;4985552;28;11660;-70
2021/01/20 09:14:47;;;;;;;;;1.00;1.00;;;;;;;;5002112;28;10934;-71
2021/01/20 09:17:15;;;;;;;;;3.00;3.00;;;;;;;;5002556;28;10910;-72
2021/01/20 09:19:42;;;;;;;;;4.50;1.25;;;;;;;;5005926;28;10933;-71
2021/01/20 09:22:10;;;;;;;;;2.50;2.50;;;;;;;;5007538;28;11488;-71
2021/01/20 09:24:36;;;;;;;;;2.00;2.00;;;;;;;;5002353;28;10801;-71
2021/01/20 09:27:05;;;;;;;;;3.75;2.00;;;;;;;;5006388;28;11622;-71
2021/01/20 09:29:31;;;;;;;;;3.50;1.00;;;;;;;;5006888;28;10704;-72
2021/01/20 09:31:58;;;;;;;;;2.75;2.00;;;;;;;;5000038;28;10759;-72
2021/01/20 09:34:25;;;;;;;;;3.00;1.25;;;;;;;;5002335;28;10893;-71
2021/01/20 09:36:51;;;;;;;;;5.00;2.50;;;;;;;;5006777;28;10839;-71
2021/01/20 09:39:18;;;;;;;;;2.50;2.50;;;;;;;;4999388;28;11699;-71
2021/01/20 09:41:45;;;;;;;;;3.00;3.00;;;;;;;;5007150;28;10925;-72
2021/01/20 09:44:12;;;;;;;;;2.75;2.75;;;;;;;;5005278;28;10879;-72
2021/01/20 09:46:39;;;;;;;;;6.75;3.00;;;;;;;;5014396;28;10881;-72
2021/01/20 09:49:06;;;;;;;;;2.00;2.00;;;;;;;;5006390;28;11542;-71
2021/01/20 09:51:33;;;;;;;;;2.25;2.25;;;;;;;;5004730;28;11604;-70
2021/01/20 09:54:00;;;;;;;;;1.75;1.75;;;;;;;;4996789;28;10754;-70
2021/01/20 09:56:27;;;;;;;;;2.00;2.00;;;;;;;;5006930;28;10746;-71
2021/01/20 09:58:53;;;;;;;;;3.00;3.00;;;;;;;;5008814;28;10672;-70
2021/01/20 10:01:21;;;;;;;;;1.50;1.50;;;;;;;;5007908;28;10590;-70
2021/01/20 10:03:48;;;;;;;;;2.00;2.00;;;;;;;;5005157;28;10661;-70
2021/01/20 10:06:15;;;;;;;;;2.75;2.75;;;;;;;;5006198;28;11501;-70
2021/01/20 10:08:45;;;;;;;;;1.75;1.75;;;;;;;;5019367;28;10551;-70
2021/01/20 10:11:12;;;;;;;;;2.25;2.25;;;;;;;;5005715;28;11282;-71
2021/01/20 10:13:38;;;;;;;;;2.00;2.00;;;;;;;;5005585;28;10599;-71
2021/01/20 10:16:06;;;;;;;;;2.75;2.75;;;;;;;;5003198;28;10631;-71
2021/01/20 10:18:33;;;;;;;;;5.25;1.00;;;;;;;;5003709;28;10547;-71
2021/01/20 10:21:00;;;;;;;;;2.00;2.00;;;;;;;;5002858;28;10515;-71
2021/01/20 10:23:27;;;;;;;;;2.75;2.00;;;;;;;;4986619;28;10531;-71
2021/01/20 10:25:54;;;;;;;;;2.00;2.00;;;;;;;;5001006;28;10544;-71
2021/01/20 10:28:21;;;;;;;;;1.00;1.00;;;;;;;;5002890;28;10374;-70
2021/01/20 10:30:49;;;;;;;;;1.50;1.50;;;;;;;;4986357;28;10333;-71
2021/01/20 10:33:16;;;;;;;;;2.25;2.25;;;;;;;;4999757;28;10599;-70
2021/01/20 10:35:44;;;;;;;;;2.25;2.25;;;;;;;;5003693;28;10500;-70
2021/01/20 10:38:11;;;;;;;;;2.25;1.00;;;;;;;;5012021;28;10535;-71
2021/01/20 10:40:38;;;;;;;;;1.75;1.75;;;;;;;;5004452;28;10398;-70
2021/01/20 10:43:05;;;;;;;;;2.25;2.25;;;;;;;;5002747;28;10449;-71
2021/01/20 10:45:32;;;;;;;;;2.00;2.00;;;;;;;;5002503;28;10465;-71
2021/01/20 10:47:59;;;;;;;;;2.25;2.00;;;;;;;;5001708;28;10424;-71
2021/01/20 10:50:25;;;;;;;;;4.00;2.00;;;;;;;;5002737;28;10433;-71
2021/01/20 10:52:53;;;;;;;;;3.00;3.00;;;;;;;;5007144;28;11140;-71
2021/01/20 10:55:19;;;;;;;;;2.00;2.00;;;;;;;;5002322;28;10372;-70
2021/01/20 10:57:46;;;;;;;;;3.00;3.00;;;;;;;;5003998;28;10568;-71
2021/01/20 11:00:13;;;;;;;;;6.00;4.00;;;;;;;;5001171;28;11242;-71
2021/01/20 11:02:40;;;;;;;;;4.00;4.00;;;;;;;;5002858;28;10287;-71
2021/01/20 11:05:08;;;;;;;;;6.00;3.75;;;;;;;;5003541;28;10365;-71
2021/01/20 11:07:35;;;;;;;;;2.00;2.00;;;;;;;;5002374;28;10315;-71
2021/01/20 11:10:05;;;;;;;;;1.50;1.50;;;;;;;;4995803;28;10325;-71
2021/01/20 11:12:31;;;;;;;;;3.00;3.00;;;;;;;;4997126;28;10264;-71
2021/01/20 11:14:58;;;;;;;;;3.25;3.25;;;;;;;;5000630;28;10276;-72
2021/01/20 11:17:26;;;;;;;;;6.00;3.00;;;;;;;;4996810;28;10144;-72
2021/01/20 11:19:52;;;;;;;;;3.00;3.00;;;;;;;;5002719;28;10212;-72
2021/01/20 11:22:19;;;;;;;;;3.50;2.50;;;;;;;;5004464;28;10313;-73
2021/01/20 11:24:47;;;;;;;;;3.00;3.00;;;;;;;;5003165;28;10228;-71
2021/01/20 11:27:15;;;;;;;;;3.00;3.00;;;;;;;;5003288;28;10094;-71
2021/01/20 11:29:41;;;;;;;;;0.00;0.00;;;;;;;;5008960;28;10218;-71
2021/01/20 11:32:09;;;;;;;;;4.50;3.50;;;;;;;;5003444;28;10092;-72
2021/01/20 11:34:36;;;;;;;;;0.00;0.00;;;;;;;;5001368;28;10144;-72
2021/01/20 11:37:04;;;;;;;;;4.00;2.25;;;;;;;;5002222;28;9896;-72
2021/01/20 11:39:31;;;;;;;;;4.00;2.75;;;;;;;;5003477;28;10142;-72
2021/01/20 11:41:58;;;;;;;;;3.25;3.00;;;;;;;;4999404;28;10068;-72
2021/01/20 11:44:25;;;;;;;;;2.25;2.25;;;;;;;;4998848;28;10843;-72
2021/01/20 11:46:52;;;;;;;;;3.00;3.00;;;;;;;;5001129;28;10089;-72
2021/01/20 11:49:19;;;;;;;;;2.00;2.00;;;;;;;;4996040;28;9835;-73
2021/01/20 11:51:46;;;;;;;;;2.50;2.50;;;;;;;;5002398;28;9901;-71
2021/01/20 11:54:13;;;;;;;;;2.00;2.00;;;;;;;;5003095;28;9886;-72
2021/01/20 11:56:40;;;;;;;;;3.00;3.00;;;;;;;;5001839;28;9899;-71
2021/01/20 11:59:07;;;;;;;;;2.00;2.00;;;;;;;;5003103;28;9813;-72
2021/01/20 12:01:36;;;;;;;;;3.50;3.50;;;;;;;;5001804;28;9931;-72
2021/01/20 12:04:03;;;;;;;;;3.00;3.00;;;;;;;;5002633;28;9832;-72
2021/01/20 12:06:30;;;;;;;;;4.00;2.00;;;;;;;;5003819;28;9959;-73
2021/01/20 12:08:57;;;;;;;;;1.75;1.75;;;;;;;;5006117;28;9806;-73
2021/01/20 12:11:24;;;;;;;;;4.50;3.00;;;;;;;;4997415;28;9918;-72
2021/01/20 12:13:51;;;;;;;;;2.00;2.00;;;;;;;;5002369;28;9798;-70
2021/01/20 12:16:19;;;;;;;;;4.00;2.00;;;;;;;;5002684;28;9648;-71
2021/01/20 12:18:48;;;;;;;;;2.00;2.00;;;;;;;;4995935;28;9675;-70
2021/01/20 12:21:15;;;;;;;;;2.25;2.25;;;;;;;;5001672;28;9598;-71
2021/01/20 12:23:42;;;;;;;;;2.25;2.25;;;;;;;;5001763;28;9498;-71
2021/01/20 12:26:10;;;;;;;;;2.50;2.50;;;;;;;;4994597;28;9653;-71
2021/01/20 12:28:37;;;;;;;;;1.00;1.00;;;;;;;;4984459;28;9632;-72
2021/01/20 12:31:04;;;;;;;;;2.00;2.00;;;;;;;;5000580;28;9480;-72
2021/01/20 12:33:31;;;;;;;;;5.25;2.25;;;;;;;;4984503;28;9738;-71
2021/01/20 12:35:59;;;;;;;;;2.50;2.50;;;;;;;;5002225;28;9628;-72
2021/01/20 12:38:26;;;;;;;;;3.00;3.00;;;;;;;;5003317;28;9519;-71
2021/01/20 12:40:53;;;;;;;;;2.00;1.25;;;;;;;;5003305;28;9513;-70
2021/01/20 12:43:19;;;;;;;;;2.00;2.00;;;;;;;;4989161;28;9455;-72
2021/01/20 12:45:46;;;;;;;;;2.33;2.33;;;;;;;;5000674;28;9510;-70
2021/01/20 12:48:13;;;;;;;;;3.00;3.00;;;;;;;;5000200;28;9272;-71
2021/01/20 12:50:40;;;;;;;;;2.00;2.00;;;;;;;;5002442;28;9373;-70
2021/01/20 12:53:08;;;;;;;;;3.00;3.00;;;;;;;;4999630;28;9313;-70
2021/01/20 12:55:35;;;;;;;;;4.00;3.00;;;;;;;;5000891;28;9395;-71
2021/01/20 12:58:01;;;;;;;;;2.00;2.00;;;;;;;;5000203;28;9349;-70
2021/01/20 13:00:28;;;;;;;;;2.00;2.00;;;;;;;;5001458;28;9318;-71
2021/01/20 13:02:55;;;;;;;;;3.67;3.00;;;;;;;;5000103;28;9196;-70
2021/01/20 13:05:22;;;;;;;;;2.00;2.00;;;;;;;;5002829;28;9291;-72
2021/01/20 13:07:49;;;;;;;;;2.00;2.00;;;;;;;;5003319;28;9284;-71
2021/01/20 13:10:17;;;;;;;;;2.67;2.00;;;;;;;;5004714;28;9126;-72
2021/01/20 13:12:43;;;;;;;;;4.00;2.00;;;;;;;;5006495;28;9279;-71
2021/01/20 13:15:11;;;;;;;;;3.00;3.00;;;;;;;;5006147;28;9240;-69
2021/01/20 13:17:37;;;;;;;;;3.00;3.00;;;;;;;;5006886;28;9128;-70
2021/01/20 13:20:05;;;;;;;;;4.00;4.00;;;;;;;;5006179;28;9213;-70
2021/01/20 13:22:32;;;;;;;;;2.00;2.00;;;;;;;;5007159;28;9323;-68
2021/01/20 13:24:59;;;;;;;;;2.00;2.00;;;;;;;;5006291;28;9032;-71
2021/01/20 13:27:27;;;;;;;;;4.00;4.00;;;;;;;;4988237;28;9260;-70
2021/01/20 13:29:54;;;;;;;;;2.00;2.00;;;;;;;;5007602;28;9235;-68
2021/01/20 13:32:21;;;;;;;;;2.00;2.00;;;;;;;;5005045;28;9084;-70
2021/01/20 13:34:47;;;;;;;;;6.33;4.33;;;;;;;;4988530;28;9043;-70
2021/01/20 13:37:14;;;;;;;;;4.33;4.33;;;;;;;;5005209;28;9272;-71
2021/01/20 13:39:42;;;;;;;;;2.33;2.33;;;;;;;;5006770;28;9301;-70
2021/01/20 13:42:09;;;;;;;;;3.67;3.67;;;;;;;;5004542;28;9324;-66
2021/01/20 13:44:38;;;;;;;;;3.00;3.00;;;;;;;;4997877;28;9118;-69
2021/01/20 13:47:05;;;;;;;;;4.67;3.33;;;;;;;;5004701;28;9196;-68
2021/01/20 13:49:32;;;;;;;;;2.33;2.33;;;;;;;;5004822;28;9114;-67
2021/01/20 13:52:00;;;;;;;;;3.00;3.00;;;;;;;;5005856;28;9132;-69
2021/01/20 13:54:27;;;;;;;;;2.67;2.67;;;;;;;;4998148;28;9222;-68
2021/01/20 13:56:54;;;;;;;;;4.00;4.00;;;;;;;;4997597;28;9065;-69
2021/01/20 13:59:21;;;;;;;;;5.00;3.33;;;;;;;;5001411;28;9221;-69
2021/01/20 14:01:50;;;;;;;;;5.00;5.00;;;;;;;;4986933;28;9145;-68
2021/01/20 14:04:17;;;;;;;;;3.00;3.00;;;;;;;;5006151;28;9994;-68
2021/01/20 14:06:44;;;;;;;;;5.00;4.67;;;;;;;;4982003;28;9125;-68
2021/01/20 14:09:10;;;;;;;;;3.00;3.00;;;;;;;;5007078;28;10152;-68
2021/01/20 14:11:38;;;;;;;;;5.00;4.00;;;;;;;;5004004;28;9454;-67
2021/01/20 14:14:04;;;;;;;;;6.67;3.00;;;;;;;;4987097;28;9370;-68
2021/01/20 14:16:32;;;;;;;;;4.33;3.00;;;;;;;;5001999;28;10025;-68
2021/01/20 14:19:00;;;;;;;;;2.33;2.33;;;;;;;;5001075;28;9428;-68
2021/01/20 14:21:27;;;;;;;;;2.33;2.33;;;;;;;;5004979;28;9367;-68
2021/01/20 14:23:54;;;;;;;;;3.33;3.33;;;;;;;;5002488;28;9253;-69
2021/01/20 14:26:20;;;;;;;;;4.00;4.00;;;;;;;;5003009;28;9322;-69
2021/01/20 14:28:47;;;;;;;;;2.67;2.67;;;;;;;;5004146;28;9306;-69
2021/01/20 14:31:14;;;;;;;;;3.00;3.00;;;;;;;;5006005;28;9249;-69
2021/01/20 14:33:41;;;;;;;;;2.33;2.33;;;;;;;;5003349;28;9371;-68
2021/01/20 14:36:09;;;;;;;;;4.00;4.00;;;;;;;;5001756;28;10260;-68
2021/01/20 14:38:35;;;;;;;;;3.00;3.00;;;;;;;;4995310;28;9341;-68
2021/01/20 14:41:02;;;;;;;;;2.33;1.00;;;;;;;;5003218;28;9197;-68
2021/01/20 14:43:29;;;;;;;;;2.67;2.67;;;;;;;;5004665;28;9352;-69
2021/01/20 14:45:56;;;;;;;;;3.33;3.33;;;;;;;;4998992;28;9216;-68
2021/01/20 14:48:22;;;;;;;;;3.00;3.00;;;;;;;;5002058;28;9302;-69
2021/01/20 14:50:49;;;;;;;;;5.00;3.00;;;;;;;;4997549;28;9289;-67
2021/01/20 14:53:17;;;;;;;;;4.33;2.00;;;;;;;;5002203;28;9357;-70